Libera — 9HOG8 — position and weather

sailwx.info

Track history (hours):
 
Tides and Currents Weather Stations Pressure Air Temp Water Temp Dewpoint Dewpoint Depression Visibility Wind Speed Wind Dir Waves Ship Positions

Libera

Last reported at 2017-Nov-18 09:21 UTC. Time now 2017-Nov-22 05:42 UTC.
Position N 37°44' W 000°21'.

Length 176 m; draft 7.3 m.

Type: Tanker. MMSI: 256209000.

Date/timePositionNaut miles runAvg speedWind from/ knotsBaromVisibWave heightAir tempDewpointWater temp
2017-Nov-18 09:21N 37°44' W 000°21'3 9.2
2017-Nov-18 09:00N 37°42' W 000°23'5 8.9
2017-Nov-18 08:29N 37°38' W 000°27'5 9.0
2017-Nov-18 07:57N 37°34' W 000°30'4 9.0
2017-Nov-18 07:29N 37°31' W 000°33'6 9.1
2017-Nov-18 06:50N 37°27' W 000°39'3 9.2
2017-Nov-18 06:30N 37°25' W 000°42'5 9.2
2017-Nov-18 06:00N 37°22' W 000°46'6 9.2
2017-Nov-18 05:21N 37°18' W 000°52'4 9.3
2017-Nov-18 04:57N 37°16' W 000°55'7 9.1
2017-Nov-18 04:09N 37°11' W 001°02'3 9.2
2017-Nov-18 03:52N 37°09' W 001°05'209 9.6
2017-Nov-17 06:05N 35°60' W 005°11'110.6
2017-Nov-17 06:00N 35°59' W 005°12'510.5
2017-Nov-17 05:30N 35°58' W 005°18'510.8
2017-Nov-17 05:00N 35°57' W 005°25'  
2017-Nov-14 11:15N 29°30' W 014°34'2 8.0
2017-Nov-14 11:00N 29°28' W 014°36'5 8.1
2017-Nov-14 10:22N 29°25' W 014°40'3 7.9
2017-Nov-14 10:00N 29°24' W 014°43'6 7.9
2017-Nov-14 09:18N 29°20' W 014°48'18 7.8
2017-Nov-14 07:00N 29°07' W 015°02'9 7.7
2017-Nov-14 05:46N 29°01' W 015°10'2 7.7
2017-Nov-14 05:28N 28°59' W 015°12'4 7.8
2017-Nov-14 05:00N 28°56' W 015°15'4 7.8
2017-Nov-14 04:30N 28°54' W 015°18'4 7.8
2017-Nov-14 04:00N 28°51' W 015°21'4 7.7
2017-Nov-14 03:30N 28°48' W 015°24'4 7.6
2017-Nov-14 03:00N 28°46' W 015°27'4 7.7
2017-Nov-14 02:30N 28°43' W 015°30'4 7.9
2017-Nov-14 02:00N 28°40' W 015°34'4 7.7
2017-Nov-14 01:30N 28°37' W 015°37'4 7.9
2017-Nov-14 01:00N 28°35' W 015°40'4 8.0
2017-Nov-14 00:30N 28°32' W 015°43'4 8.0
2017-Nov-14 00:00N 28°29' W 015°46'4 7.9
2017-Nov-13 23:30N 28°26' W 015°49'4 8.2
2017-Nov-13 23:00N 28°23' W 015°52'4 8.0
2017-Nov-13 22:30N 28°20' W 015°55'4 7.8
2017-Nov-13 22:00N 28°17' W 015°59'18 0.6
2017-Nov-12 18:25N 28°27' W 016°16'0 0.0
2017-Nov-12 15:46N 28°27' W 016°16'0 0.0
2017-Nov-12 14:34N 28°27' W 016°16'0 0.0
2017-Nov-12 14:28N 28°27' W 016°16'0 0.0
2017-Nov-12 13:58N 28°27' W 016°16'0 0.0
2017-Nov-12 13:19N 28°27' W 016°16'0 0.0
2017-Nov-12 12:49N 28°27' W 016°16'0 0.0
2017-Nov-12 12:22N 28°27' W 016°16'0 0.0
2017-Nov-12 11:46N 28°27' W 016°16'0 0.0
2017-Nov-12 11:22N 28°27' W 016°16'0 0.0
2017-Nov-12 10:10N 28°27' W 016°16'0 0.0
2017-Nov-12 09:07N 28°27' W 016°16'0 0.0
2017-Nov-12 08:55N 28°27' W 016°16'0 0.0
2017-Nov-12 08:25N 28°27' W 016°16'0 0.0
2017-Nov-12 07:55N 28°27' W 016°16'0 0.0
2017-Nov-12 07:28N 28°27' W 016°16'0 0.0
2017-Nov-12 06:28N 28°27' W 016°16'0 0.0
2017-Nov-12 05:40N 28°27' W 016°16'0 0.0
2017-Nov-12 03:55N 28°27' W 016°16'0 0.0
2017-Nov-12 03:28N 28°27' W 016°16'0 0.0
2017-Nov-12 02:58N 28°27' W 016°16'0 0.0
2017-Nov-12 02:28N 28°27' W 016°16'0 0.0
2017-Nov-12 01:58N 28°27' W 016°16'0 0.0
2017-Nov-12 01:16N 28°27' W 016°16'0 0.0
2017-Nov-12 00:58N 28°27' W 016°16'0 0.0
2017-Nov-12 00:28N 28°27' W 016°16'0 0.0
2017-Nov-11 23:58N 28°27' W 016°16'0 0.0
2017-Nov-11 23:19N 28°27' W 016°16'0 0.0
2017-Nov-11 22:46N 28°27' W 016°16'0 0.0
2017-Nov-11 22:22N 28°27' W 016°16'0 0.0
2017-Nov-11 21:52N 28°27' W 016°16'0 0.0
2017-Nov-11 21:26N 28°27' W 016°16'0 0.6
2017-Nov-11 21:00N 28°27' W 016°15'2 4.9
2017-Nov-11 20:30N 28°28' W 016°13'3 3.9
2017-Nov-11 19:52N 28°30' W 016°11'0 0.1
2017-Nov-11 19:22N 28°30' W 016°11'0 0.0
2017-Nov-11 18:52N 28°30' W 016°11'0 0.0
2017-Nov-11 18:22N 28°30' W 016°11'0 0.0
2017-Nov-11 17:52N 28°30' W 016°11'0 0.1
2017-Nov-11 17:25N 28°30' W 016°11'0 0.0
2017-Nov-11 16:52N 28°30' W 016°11'0 0.0
2017-Nov-11 16:25N 28°30' W 016°11'0 0.0
2017-Nov-11 15:55N 28°30' W 016°11'0 0.0
2017-Nov-11 15:25N 28°30' W 016°11'0 0.0
2017-Nov-11 14:55N 28°30' W 016°11'0 0.0
2017-Nov-11 14:25N 28°30' W 016°11'0 0.0
2017-Nov-11 13:58N 28°30' W 016°11'0 0.0
2017-Nov-11 13:28N 28°30' W 016°11'0 0.0
2017-Nov-11 12:58N 28°30' W 016°11'0 0.0
2017-Nov-11 12:28N 28°30' W 016°11'0 0.0
2017-Nov-11 11:58N 28°30' W 016°11'0 0.1
2017-Nov-11 11:28N 28°30' W 016°11'0 0.2
2017-Nov-11 10:58N 28°30' W 016°11'0 0.1
2017-Nov-11 10:28N 28°30' W 016°11'0 0.1
2017-Nov-11 09:58N 28°30' W 016°11'0 0.1
2017-Nov-11 09:28N 28°30' W 016°11'0 0.0
2017-Nov-11 08:19N 28°30' W 016°11'0 0.1
2017-Nov-11 07:58N 28°30' W 016°11'0 0.0
2017-Nov-11 07:16N 28°30' W 016°11'0 0.0
2017-Nov-11 06:46N 28°30' W 016°11'0 0.1
2017-Nov-11 06:19N 28°30' W 016°11'0 0.0
2017-Nov-11 05:52N 28°30' W 016°11'0 0.0
2017-Nov-11 05:19N 28°30' W 016°11'0 0.0
2017-Nov-11 03:10N 28°30' W 016°11'0 0.0
2017-Nov-11 02:49N 28°30' W 016°11'0 0.0
2017-Nov-11 02:10N 28°30' W 016°11'0 0.0
2017-Nov-11 01:40N 28°30' W 016°11'0 0.0
2017-Nov-11 01:10N 28°30' W 016°11'0 0.1
2017-Nov-11 00:55N 28°30' W 016°11'0 0.0
2017-Nov-10 23:58N 28°30' W 016°11'0 0.0
2017-Nov-10 23:13N 28°30' W 016°11'0 0.0
2017-Nov-10 14:47N 28°30' W 016°11'2 1.1
2017-Nov-10 13:11N 28°28' W 016°12'1 1.6
2017-Nov-10 12:50N 28°28' W 016°12'1 2.0
2017-Nov-10 12:29N 28°27' W 016°11'29 9.7
2017-Nov-10 09:33N 28°45' W 015°46'112.1
2017-Nov-10 09:29N 28°46' W 015°46'612.4
2017-Nov-10 08:59N 28°50' W 015°41'1312.4
2017-Nov-10 07:59N 28°60' W 015°32'712.6
2017-Nov-10 07:25N 29°05' W 015°26'612.7
2017-Nov-10 06:56N 29°10' W 015°22'512.5
2017-Nov-10 06:30N 29°14' W 015°17'612.2
2017-Nov-10 06:00N 29°18' W 015°13'612.1
2017-Nov-10 05:30N 29°23' W 015°08'611.9
2017-Nov-10 05:01N 29°27' W 015°03'712.1
2017-Nov-10 04:27N 29°32' W 014°58'612.1
2017-Nov-10 03:58N 29°37' W 014°54'612.5
2017-Nov-10 03:31N 29°41' W 014°50'812.5
2017-Nov-10 02:51N 29°47' W 014°43'512.4
2017-Nov-10 02:28N 29°50' W 014°39'612.2
2017-Nov-10 02:00N 29°54' W 014°35'612.2
2017-Nov-10 01:30N 29°59' W 014°30'612.1
2017-Nov-10 01:00N 30°04' W 014°26'612.4
2017-Nov-10 00:30N 30°08' W 014°21'912.4
2017-Nov-09 23:48N 30°15' W 014°14'812.5
2017-Nov-09 23:11N 30°20' W 014°08'312.6
2017-Nov-09 22:57N 30°23' W 014°06'2712.1
2017-Nov-09 20:40N 30°43' W 013°45'812.2
2017-Nov-09 20:00N 30°49' W 013°38'9612.2
2017-Nov-09 12:05N 32°00' W 012°22'212.0
2017-Nov-09 11:56N 32°02' W 012°20'4712.3
2017-Nov-09 08:07N 32°37' W 011°43'2412.2
2017-Nov-09 06:10N 32°54' W 011°25'212.2
2017-Nov-09 05:59N 32°56' W 011°23'612.2
2017-Nov-09 05:30N 33°00' W 011°18'  
Track history (hours):
 
Tides and Currents Weather Stations Pressure Air Temp Water Temp Dewpoint Dewpoint Depression Visibility Wind Speed Wind Dir Waves Ship Positions

Libera

Last reported at 2017-Nov-18 09:21 UTC. Time now 2017-Nov-22 05:42 UTC.
Position N 37°44' W 000°21'.

Length 176 m; draft 7.3 m.

Type: Tanker. MMSI: 256209000.

Date/timePositionNaut miles runAvg speedWind from/ knotsBaromVisibWave heightAir tempDewpointWater temp
2017-Nov-18 09:21N 37°44' W 000°21'3 9.2
2017-Nov-18 09:00N 37°42' W 000°23'5 8.9
2017-Nov-18 08:29N 37°38' W 000°27'5 9.0
2017-Nov-18 07:57N 37°34' W 000°30'4 9.0
2017-Nov-18 07:29N 37°31' W 000°33'6 9.1
2017-Nov-18 06:50N 37°27' W 000°39'3 9.2
2017-Nov-18 06:30N 37°25' W 000°42'5 9.2
2017-Nov-18 06:00N 37°22' W 000°46'6 9.2
2017-Nov-18 05:21N 37°18' W 000°52'4 9.3
2017-Nov-18 04:57N 37°16' W 000°55'7 9.1
2017-Nov-18 04:09N 37°11' W 001°02'3 9.2
2017-Nov-18 03:52N 37°09' W 001°05'209 9.6
2017-Nov-17 06:05N 35°60' W 005°11'110.6
2017-Nov-17 06:00N 35°59' W 005°12'510.5
2017-Nov-17 05:30N 35°58' W 005°18'510.8
2017-Nov-17 05:00N 35°57' W 005°25'  
2017-Nov-14 11:15N 29°30' W 014°34'2 8.0
2017-Nov-14 11:00N 29°28' W 014°36'5 8.1
2017-Nov-14 10:22N 29°25' W 014°40'3 7.9
2017-Nov-14 10:00N 29°24' W 014°43'6 7.9
2017-Nov-14 09:18N 29°20' W 014°48'18 7.8
2017-Nov-14 07:00N 29°07' W 015°02'9 7.7
2017-Nov-14 05:46N 29°01' W 015°10'2 7.7
2017-Nov-14 05:28N 28°59' W 015°12'4 7.8
2017-Nov-14 05:00N 28°56' W 015°15'4 7.8
2017-Nov-14 04:30N 28°54' W 015°18'4 7.8
2017-Nov-14 04:00N 28°51' W 015°21'4 7.7
2017-Nov-14 03:30N 28°48' W 015°24'4 7.6
2017-Nov-14 03:00N 28°46' W 015°27'4 7.7
2017-Nov-14 02:30N 28°43' W 015°30'4 7.9
2017-Nov-14 02:00N 28°40' W 015°34'4 7.7
2017-Nov-14 01:30N 28°37' W 015°37'4 7.9
2017-Nov-14 01:00N 28°35' W 015°40'4 8.0
2017-Nov-14 00:30N 28°32' W 015°43'4 8.0
2017-Nov-14 00:00N 28°29' W 015°46'4 7.9
2017-Nov-13 23:30N 28°26' W 015°49'4 8.2
2017-Nov-13 23:00N 28°23' W 015°52'4 8.0
2017-Nov-13 22:30N 28°20' W 015°55'4 7.8
2017-Nov-13 22:00N 28°17' W 015°59'18 0.6
2017-Nov-12 18:25N 28°27' W 016°16'0 0.0
2017-Nov-12 15:46N 28°27' W 016°16'0 0.0
2017-Nov-12 14:34N 28°27' W 016°16'0 0.0
2017-Nov-12 14:28N 28°27' W 016°16'0 0.0
2017-Nov-12 13:58N 28°27' W 016°16'0 0.0
2017-Nov-12 13:19N 28°27' W 016°16'0 0.0
2017-Nov-12 12:49N 28°27' W 016°16'0 0.0
2017-Nov-12 12:22N 28°27' W 016°16'0 0.0
2017-Nov-12 11:46N 28°27' W 016°16'0 0.0
2017-Nov-12 11:22N 28°27' W 016°16'0 0.0
2017-Nov-12 10:10N 28°27' W 016°16'0 0.0
2017-Nov-12 09:07N 28°27' W 016°16'0 0.0
2017-Nov-12 08:55N 28°27' W 016°16'0 0.0
2017-Nov-12 08:25N 28°27' W 016°16'0 0.0
2017-Nov-12 07:55N 28°27' W 016°16'0 0.0
2017-Nov-12 07:28N 28°27' W 016°16'0 0.0
2017-Nov-12 06:28N 28°27' W 016°16'0 0.0
2017-Nov-12 05:40N 28°27' W 016°16'0 0.0
2017-Nov-12 03:55N 28°27' W 016°16'0 0.0
2017-Nov-12 03:28N 28°27' W 016°16'0 0.0
2017-Nov-12 02:58N 28°27' W 016°16'0 0.0
2017-Nov-12 02:28N 28°27' W 016°16'0 0.0
2017-Nov-12 01:58N 28°27' W 016°16'0 0.0
2017-Nov-12 01:16N 28°27' W 016°16'0 0.0
2017-Nov-12 00:58N 28°27' W 016°16'0 0.0
2017-Nov-12 00:28N 28°27' W 016°16'0 0.0
2017-Nov-11 23:58N 28°27' W 016°16'0 0.0
2017-Nov-11 23:19N 28°27' W 016°16'0 0.0
2017-Nov-11 22:46N 28°27' W 016°16'0 0.0
2017-Nov-11 22:22N 28°27' W 016°16'0 0.0
2017-Nov-11 21:52N 28°27' W 016°16'0 0.0
2017-Nov-11 21:26N 28°27' W 016°16'0 0.6
2017-Nov-11 21:00N 28°27' W 016°15'2 4.9
2017-Nov-11 20:30N 28°28' W 016°13'3 3.9
2017-Nov-11 19:52N 28°30' W 016°11'0 0.1
2017-Nov-11 19:22N 28°30' W 016°11'0 0.0
2017-Nov-11 18:52N 28°30' W 016°11'0 0.0
2017-Nov-11 18:22N 28°30' W 016°11'0 0.0
2017-Nov-11 17:52N 28°30' W 016°11'0 0.1
2017-Nov-11 17:25N 28°30' W 016°11'0 0.0
2017-Nov-11 16:52N 28°30' W 016°11'0 0.0
2017-Nov-11 16:25N 28°30' W 016°11'0 0.0
2017-Nov-11 15:55N 28°30' W 016°11'0 0.0
2017-Nov-11 15:25N 28°30' W 016°11'0 0.0
2017-Nov-11 14:55N 28°30' W 016°11'0 0.0
2017-Nov-11 14:25N 28°30' W 016°11'0 0.0
2017-Nov-11 13:58N 28°30' W 016°11'0 0.0
2017-Nov-11 13:28N 28°30' W 016°11'0 0.0
2017-Nov-11 12:58N 28°30' W 016°11'0 0.0
2017-Nov-11 12:28N 28°30' W 016°11'0 0.0
2017-Nov-11 11:58N 28°30' W 016°11'0 0.1
2017-Nov-11 11:28N 28°30' W 016°11'0 0.2
2017-Nov-11 10:58N 28°30' W 016°11'0 0.1
2017-Nov-11 10:28N 28°30' W 016°11'0 0.1
2017-Nov-11 09:58N 28°30' W 016°11'0 0.1
2017-Nov-11 09:28N 28°30' W 016°11'0 0.0
2017-Nov-11 08:19N 28°30' W 016°11'0 0.1
2017-Nov-11 07:58N 28°30' W 016°11'0 0.0
2017-Nov-11 07:16N 28°30' W 016°11'0 0.0
2017-Nov-11 06:46N 28°30' W 016°11'0 0.1
2017-Nov-11 06:19N 28°30' W 016°11'0 0.0
2017-Nov-11 05:52N 28°30' W 016°11'0 0.0
2017-Nov-11 05:19N 28°30' W 016°11'0 0.0
2017-Nov-11 03:10N 28°30' W 016°11'0 0.0
2017-Nov-11 02:49N 28°30' W 016°11'0 0.0
2017-Nov-11 02:10N 28°30' W 016°11'0 0.0
2017-Nov-11 01:40N 28°30' W 016°11'0 0.0
2017-Nov-11 01:10N 28°30' W 016°11'0 0.1
2017-Nov-11 00:55N 28°30' W 016°11'0 0.0
2017-Nov-10 23:58N 28°30' W 016°11'0 0.0
2017-Nov-10 23:13N 28°30' W 016°11'0 0.0
2017-Nov-10 14:47N 28°30' W 016°11'2 1.1
2017-Nov-10 13:11N 28°28' W 016°12'1 1.6
2017-Nov-10 12:50N 28°28' W 016°12'1 2.0
2017-Nov-10 12:29N 28°27' W 016°11'29 9.7
2017-Nov-10 09:33N 28°45' W 015°46'112.1
2017-Nov-10 09:29N 28°46' W 015°46'612.4
2017-Nov-10 08:59N 28°50' W 015°41'1312.4
2017-Nov-10 07:59N 28°60' W 015°32'712.6
2017-Nov-10 07:25N 29°05' W 015°26'612.7
2017-Nov-10 06:56N 29°10' W 015°22'512.5
2017-Nov-10 06:30N 29°14' W 015°17'612.2
2017-Nov-10 06:00N 29°18' W 015°13'612.1
2017-Nov-10 05:30N 29°23' W 015°08'611.9
2017-Nov-10 05:01N 29°27' W 015°03'712.1
2017-Nov-10 04:27N 29°32' W 014°58'612.1
2017-Nov-10 03:58N 29°37' W 014°54'612.5
2017-Nov-10 03:31N 29°41' W 014°50'812.5
2017-Nov-10 02:51N 29°47' W 014°43'512.4
2017-Nov-10 02:28N 29°50' W 014°39'612.2
2017-Nov-10 02:00N 29°54' W 014°35'612.2
2017-Nov-10 01:30N 29°59' W 014°30'612.1
2017-Nov-10 01:00N 30°04' W 014°26'612.4
2017-Nov-10 00:30N 30°08' W 014°21'912.4
2017-Nov-09 23:48N 30°15' W 014°14'812.5
2017-Nov-09 23:11N 30°20' W 014°08'312.6
2017-Nov-09 22:57N 30°23' W 014°06'2712.1
2017-Nov-09 20:40N 30°43' W 013°45'812.2
2017-Nov-09 20:00N 30°49' W 013°38'9612.2
2017-Nov-09 12:05N 32°00' W 012°22'212.0
2017-Nov-09 11:56N 32°02' W 012°20'4712.3
2017-Nov-09 08:07N 32°37' W 011°43'2412.2
2017-Nov-09 06:10N 32°54' W 011°25'212.2
2017-Nov-09 05:59N 32°56' W 011°23'612.2
2017-Nov-09 05:30N 33°00' W 011°18'  

Dump ship's entire track history